Time;durP1;ratioP1;P1;durP2;ratioP2;P2;SDS_P1;SDS_P2;PMS_P1;PMS_P2;Temp;Humidity;BMP_temperature;BMP_pressure;BME280_temperature;BME280_humidity;BME280_pressure;Samples;Min_cycle;Max_cycle;Signal;HPM_P1;HPM_P2
2022/03/31 00:00:42;;;;;;;25.83;14.23;;;11.60;89.00;;;;;;4127450;28;20088;-63
2022/03/31 00:02:43;;;;;;;26.20;13.00;;;11.60;89.20;;;;;;4141709;28;20049;-59
2022/03/31 00:04:44;;;;;;;23.47;10.93;;;11.50;89.20;;;;;;4140329;28;20045;-59
2022/03/31 00:06:45;;;;;;;22.60;10.10;;;11.50;88.90;;;;;;4139526;28;20046;-60
2022/03/31 00:08:47;;;;;;;28.03;10.60;;;11.40;89.40;;;;;;4140531;28;20474;-60
2022/03/31 00:10:55;;;;;;;23.87;9.80;;;11.40;89.20;;;;;;4128474;28;20129;-58
2022/03/31 00:12:58;;;;;;;23.03;10.80;;;11.30;89.60;;;;;;4124684;28;20490;-58
2022/03/31 00:14:59;;;;;;;19.07;9.67;;;11.30;90.00;;;;;;4125836;28;20034;-59
2022/03/31 00:17:00;;;;;;;20.10;10.17;;;11.30;90.00;;;;;;4140546;28;20046;-59
2022/03/31 00:19:01;;;;;;;19.13;10.20;;;11.30;90.10;;;;;;4139052;28;20750;-57
2022/03/31 00:21:03;;;;;;;19.87;10.27;;;11.30;90.10;;;;;;4130643;28;20034;-59
2022/03/31 00:23:08;;;;;;;21.57;10.57;;;11.30;90.20;;;;;;4130445;28;20034;-65
2022/03/31 00:25:11;;;;;;;19.70;10.13;;;11.30;90.20;;;;;;4128681;28;20042;-62
2022/03/31 00:27:12;;;;;;;24.03;11.20;;;11.30;90.30;;;;;;4124785;28;20054;-60
2022/03/31 00:29:13;;;;;;;20.80;10.40;;;11.30;90.30;;;;;;4123489;28;20085;-62
2022/03/31 00:31:14;;;;;;;25.47;12.20;;;11.40;90.30;;;;;;4123156;28;20097;-61
2022/03/31 00:33:15;;;;;;;23.00;10.63;;;11.30;90.40;;;;;;4130680;28;20100;-63
2022/03/31 00:35:16;;;;;;;21.67;10.63;;;11.20;90.50;;;;;;4136411;28;20038;-60
2022/03/31 00:37:18;;;;;;;19.33;11.27;;;11.20;90.70;;;;;;4126370;28;20486;-58
2022/03/31 00:39:34;;;;;;;23.80;11.67;;;11.20;91.00;;;;;;4125021;28;20049;-63
2022/03/31 00:41:37;;;;;;;20.73;10.67;;;11.10;91.20;;;;;;4124421;28;20046;-57
2022/03/31 00:43:38;;;;;;;29.63;12.60;;;11.10;91.30;;;;;;4130026;28;20111;-60
2022/03/31 00:45:51;;;;;;;23.10;11.70;;;11.10;91.60;;;;;;4140073;28;20034;-62
2022/03/31 00:47:54;;;;;;;27.70;12.77;;;11.10;92.30;;;;;;4108076;28;20117;-62
2022/03/31 00:49:55;;;;;;;26.17;13.17;;;11.00;92.90;;;;;;4115875;28;20077;-64
2022/03/31 00:51:56;;;;;;;25.77;12.10;;;10.80;93.70;;;;;;4139307;28;20417;-63
2022/03/31 00:53:58;;;;;;;29.47;14.13;;;10.80;94.20;;;;;;4127814;28;20089;-58
2022/03/31 00:56:00;;;;;;;37.23;14.20;;;10.70;94.70;;;;;;4131403;28;20556;-59
2022/03/31 00:58:01;;;;;;;31.27;14.27;;;10.60;95.10;;;;;;4140034;28;20112;-55
2022/03/31 01:00:07;;;;;;;31.33;14.60;;;10.50;95.50;;;;;;4140414;28;20045;-58
2022/03/31 01:02:09;;;;;;;27.87;14.03;;;10.50;95.70;;;;;;4154999;28;20041;-54
2022/03/31 01:04:10;;;;;;;34.10;15.00;;;10.40;95.90;;;;;;4139953;28;20084;-59
2022/03/31 01:06:11;;;;;;;36.97;14.73;;;10.40;96.00;;;;;;4132458;28;20112;-63
2022/03/31 01:08:12;;;;;;;35.80;14.07;;;10.40;95.90;;;;;;4123311;28;20097;-58
2022/03/31 01:10:14;;;;;;;29.77;14.47;;;10.40;95.80;;;;;;4124918;28;20086;-61
2022/03/31 01:12:16;;;;;;;32.90;13.27;;;10.40;95.70;;;;;;4123654;28;20030;-53
2022/03/31 01:14:19;;;;;;;33.70;14.73;;;10.50;95.60;;;;;;4123778;28;20477;-56
2022/03/31 01:16:20;;;;;;;30.27;13.47;;;10.50;95.40;;;;;;4124526;28;20030;-57
2022/03/31 01:18:21;;;;;;;33.90;14.50;;;10.60;95.20;;;;;;4123289;28;20100;-60
2022/03/31 01:20:22;;;;;;;26.87;11.17;;;10.60;95.20;;;;;;4123772;28;20034;-58
2022/03/31 01:22:30;;;;;;;28.17;11.53;;;10.50;95.20;;;;;;4124199;28;20635;-62
2022/03/31 01:24:31;;;;;;;20.83;11.13;;;10.50;95.10;;;;;;4123765;28;20084;-59
2022/03/31 01:26:34;;;;;;;22.70;11.97;;;10.50;95.20;;;;;;4131756;28;20462;-60
2022/03/31 01:28:38;;;;;;;20.53;10.77;;;10.60;95.10;;;;;;4138965;28;20100;-57
2022/03/31 01:30:40;;;;;;;21.47;11.53;;;10.50;95.00;;;;;;4139380;28;20030;-55
2022/03/31 01:32:45;;;;;;;20.23;12.70;;;10.60;95.10;;;;;;4139905;28;20088;-57
2022/03/31 01:34:46;;;;;;;23.67;11.60;;;10.60;95.20;;;;;;4139616;28;20512;-57
2022/03/31 01:36:48;;;;;;;22.47;11.00;;;10.60;95.30;;;;;;4137580;28;20435;-58
2022/03/31 01:38:49;;;;;;;18.60;11.50;;;10.60;95.40;;;;;;4127332;28;20553;-59
2022/03/31 01:40:51;;;;;;;25.50;12.90;;;10.60;95.30;;;;;;4124684;28;20061;-56
2022/03/31 01:42:52;;;;;;;25.07;12.77;;;10.70;95.40;;;;;;4127290;28;20027;-57
2022/03/31 01:44:54;;;;;;;24.33;11.77;;;10.70;95.40;;;;;;4131887;28;20038;-56
2022/03/31 01:46:56;;;;;;;27.50;11.60;;;10.70;95.40;;;;;;4124187;28;20112;-59
2022/03/31 01:48:57;;;;;;;26.80;11.90;;;10.80;95.30;;;;;;4123155;28;20046;-59
2022/03/31 01:50:58;;;;;;;19.90;11.07;;;10.80;95.30;;;;;;4133404;28;20092;-58
2022/03/31 01:53:01;;;;;;;28.17;12.87;;;10.70;95.30;;;;;;4137476;28;20088;-57
2022/03/31 01:55:02;;;;;;;26.83;13.17;;;10.70;95.40;;;;;;4139201;28;20041;-64
2022/03/31 01:57:04;;;;;;;27.17;13.23;;;10.70;95.70;;;;;;4122590;28;20585;-59
2022/03/31 01:59:05;;;;;;;26.47;12.57;;;10.70;95.70;;;;;;4123044;28;20045;-60
2022/03/31 02:01:06;;;;;;;24.10;13.70;;;10.60;96.10;;;;;;4125598;28;20054;-61
2022/03/31 02:03:07;;;;;;;24.83;13.10;;;10.60;96.20;;;;;;4126789;28;20038;-61
2022/03/31 02:05:10;;;;;;;23.57;12.27;;;10.50;96.40;;;;;;4129719;28;20031;-61
2022/03/31 02:07:11;;;;;;;27.73;13.50;;;10.50;96.50;;;;;;4142563;28;20081;-60
2022/03/31 02:09:12;;;;;;;31.40;11.33;;;10.50;96.60;;;;;;4141298;28;20045;-61
2022/03/31 02:11:13;;;;;;;27.03;11.30;;;10.40;96.50;;;;;;4140013;28;20041;-61
2022/03/31 02:13:15;;;;;;;28.33;12.27;;;10.40;96.60;;;;;;4142385;28;20066;-61
2022/03/31 02:15:16;;;;;;;28.57;12.87;;;10.20;96.90;;;;;;4140409;28;20457;-63
2022/03/31 02:17:17;;;;;;;22.50;11.97;;;10.20;97.10;;;;;;4127308;28;20494;-56
2022/03/31 02:19:18;;;;;;;29.97;13.13;;;10.10;97.00;;;;;;4125964;28;20161;-59
2022/03/31 02:21:19;;;;;;;20.77;12.43;;;10.10;97.00;;;;;;4137793;28;20120;-62
2022/03/31 02:23:20;;;;;;;24.97;12.43;;;10.10;97.00;;;;;;4140729;28;20581;-61
2022/03/31 02:25:21;;;;;;;23.70;11.33;;;10.10;97.20;;;;;;4142188;28;20046;-60
2022/03/31 02:27:22;;;;;;;22.40;11.33;;;10.10;97.40;;;;;;4141521;28;20477;-58
2022/03/31 02:29:25;;;;;;;25.00;11.67;;;10.00;97.60;;;;;;4142637;28;20042;-64
2022/03/31 02:31:26;;;;;;;31.10;12.80;;;10.00;97.60;;;;;;4126489;28;20895;-61
2022/03/31 02:33:27;;;;;;;22.83;11.60;;;10.00;98.00;;;;;;4125950;28;20069;-61
2022/03/31 02:35:29;;;;;;;25.17;11.97;;;10.00;98.20;;;;;;4130771;28;20038;-58
2022/03/31 02:37:31;;;;;;;25.77;11.40;;;10.00;98.30;;;;;;4136501;28;20612;-56
2022/03/31 02:39:32;;;;;;;26.37;11.73;;;9.90;98.50;;;;;;4141215;28;20057;-60
2022/03/31 02:41:34;;;;;;;33.57;13.67;;;9.80;98.80;;;;;;4131431;28;20480;-55
2022/03/31 02:43:35;;;;;;;32.67;13.43;;;9.70;99.30;;;;;;4127753;28;20042;-61
2022/03/31 02:45:36;;;;;;;29.07;12.93;;;9.70;99.70;;;;;;4127847;28;20112;-65
2022/03/31 02:47:38;;;;;;;22.30;12.80;;;9.70;99.80;;;;;;4142726;28;20096;-61
2022/03/31 02:49:40;;;;;;;26.03;14.00;;;9.60;99.90;;;;;;4142210;28;20030;-59
2022/03/31 02:51:41;;;;;;;29.13;12.40;;;9.60;99.90;;;;;;4140695;28;20064;-62
2022/03/31 02:56:03;;;;;;;30.27;11.73;;;9.60;99.90;;;;;;4117749;28;20057;-60
2022/03/31 02:58:05;;;;;;;25.77;12.60;;;9.50;99.90;;;;;;4125236;28;20113;-62
2022/03/31 03:00:07;;;;;;;29.40;12.70;;;9.50;99.90;;;;;;4125390;28;20097;-63
2022/03/31 03:02:08;;;;;;;25.70;12.23;;;9.60;99.90;;;;;;4125328;28;20034;-56
2022/03/31 03:04:10;;;;;;;27.73;12.83;;;9.60;99.90;;;;;;4125695;28;20026;-57
2022/03/31 03:06:13;;;;;;;36.70;13.40;;;9.60;99.90;;;;;;4132736;28;20042;-61
2022/03/31 03:08:15;;;;;;;35.83;13.33;;;9.60;99.90;;;;;;4109731;28;20156;-65
2022/03/31 03:10:16;;;;;;;35.87;14.00;;;9.70;99.90;;;;;;4113911;28;20061;-58
2022/03/31 03:12:17;;;;;;;35.43;14.30;;;9.70;99.90;;;;;;4127586;28;20034;-58
2022/03/31 03:14:19;;;;;;;27.70;13.90;;;9.70;99.90;;;;;;4141113;28;20108;-57
2022/03/31 03:16:21;;;;;;;33.80;14.10;;;9.70;99.90;;;;;;4141866;28;20041;-63
2022/03/31 03:18:22;;;;;;;33.03;15.10;;;9.70;99.90;;;;;;4141727;28;20104;-59
2022/03/31 03:20:24;;;;;;;30.83;13.70;;;9.70;99.90;;;;;;4138417;28;20068;-61
2022/03/31 03:22:26;;;;;;;29.77;14.93;;;9.80;99.90;;;;;;4125463;28;20039;-58
2022/03/31 03:24:27;;;;;;;28.50;14.70;;;9.80;99.90;;;;;;4126456;28;20481;-60
2022/03/31 03:26:30;;;;;;;30.50;14.53;;;9.80;99.90;;;;;;4125710;28;20026;-57
2022/03/31 03:28:32;;;;;;;40.80;14.67;;;9.80;99.90;;;;;;4136770;28;20033;-58
2022/03/31 03:30:34;;;;;;;43.13;14.43;;;9.70;99.90;;;;;;4131044;28;20026;-58
2022/03/31 03:32:38;;;;;;;35.17;15.00;;;9.70;99.90;;;;;;4137836;28;20034;-60
2022/03/31 03:34:39;;;;;;;42.80;15.70;;;9.70;99.90;;;;;;4156440;28;20041;-59
2022/03/31 03:36:40;;;;;;;42.17;15.17;;;9.70;99.90;;;;;;4124712;28;20034;-59
2022/03/31 03:38:42;;;;;;;40.43;16.73;;;9.80;99.90;;;;;;4123861;28;20077;-61
2022/03/31 03:40:43;;;;;;;42.00;17.33;;;9.80;99.90;;;;;;4123898;28;20038;-59
2022/03/31 03:42:45;;;;;;;30.23;14.63;;;9.80;99.90;;;;;;4126134;28;20920;-66
2022/03/31 03:44:46;;;;;;;35.03;15.87;;;9.80;99.90;;;;;;4124806;28;20022;-59
2022/03/31 03:46:47;;;;;;;40.90;15.57;;;9.80;99.90;;;;;;4125465;28;20080;-63
2022/03/31 03:48:48;;;;;;;36.37;15.80;;;9.80;99.90;;;;;;4124741;28;20078;-63
2022/03/31 03:50:49;;;;;;;39.70;16.90;;;9.70;99.90;;;;;;4124698;28;20030;-61
2022/03/31 03:52:51;;;;;;;50.17;17.27;;;9.70;99.90;;;;;;4126069;28;20038;-56
2022/03/31 03:54:52;;;;;;;51.73;17.37;;;9.70;99.90;;;;;;4124482;28;20076;-58
2022/03/31 03:56:53;;;;;;;44.27;17.37;;;9.70;99.90;;;;;;4139552;28;20038;-60
2022/03/31 03:58:54;;;;;;;39.17;17.90;;;9.70;99.90;;;;;;4132828;28;20034;-55
2022/03/31 04:00:56;;;;;;;40.63;17.10;;;9.80;99.90;;;;;;4126274;28;20608;-59
2022/03/31 04:02:57;;;;;;;45.87;19.37;;;9.80;99.90;;;;;;4139664;28;20049;-63
2022/03/31 04:04:59;;;;;;;45.37;19.33;;;9.80;99.90;;;;;;4127578;28;20027;-59
2022/03/31 04:07:00;;;;;;;46.67;18.43;;;9.80;99.90;;;;;;4123802;28;20042;-57
2022/03/31 04:09:03;;;;;;;42.93;17.53;;;9.70;99.90;;;;;;4124617;28;20031;-63
2022/03/31 04:11:04;;;;;;;39.27;17.73;;;9.60;99.90;;;;;;4124283;28;20108;-55
2022/03/31 04:13:05;;;;;;;39.77;16.20;;;9.70;99.90;;;;;;4124140;28;20034;-60
2022/03/31 04:15:08;;;;;;;37.37;18.20;;;9.80;99.90;;;;;;4123955;28;20081;-58
2022/03/31 04:17:09;;;;;;;49.97;18.03;;;9.80;99.90;;;;;;4127133;28;20101;-60
2022/03/31 04:19:10;;;;;;;35.57;16.50;;;9.80;99.90;;;;;;4125179;28;20038;-59
2022/03/31 04:21:11;;;;;;;49.13;16.57;;;9.70;99.90;;;;;;4122588;28;20077;-60
2022/03/31 04:23:14;;;;;;;35.23;18.57;;;9.70;99.90;;;;;;4123131;28;20030;-60
2022/03/31 04:25:15;;;;;;;40.30;17.40;;;9.70;99.90;;;;;;4124651;28;20038;-62
2022/03/31 04:27:16;;;;;;;44.20;18.90;;;9.70;99.90;;;;;;4123417;28;20042;-59
2022/03/31 04:29:17;;;;;;;43.20;18.67;;;9.60;99.90;;;;;;4123579;28;20038;-60
2022/03/31 04:31:18;;;;;;;38.87;16.93;;;9.70;99.90;;;;;;4125479;28;20092;-65
2022/03/31 04:33:20;;;;;;;35.97;16.17;;;9.70;99.90;;;;;;4124394;28;20042;-61
2022/03/31 04:35:21;;;;;;;45.90;17.73;;;9.70;99.90;;;;;;4123936;28;20061;-63
2022/03/31 04:37:24;;;;;;;43.80;17.27;;;9.70;99.90;;;;;;4127484;28;20043;-58
2022/03/31 04:39:26;;;;;;;42.77;16.87;;;9.70;99.90;;;;;;4123971;28;20553;-61
2022/03/31 04:41:27;;;;;;;45.43;18.70;;;9.70;99.90;;;;;;4119712;28;20054;-63
2022/03/31 04:43:28;;;;;;;43.73;15.67;;;9.80;99.90;;;;;;4121878;28;20108;-59
2022/03/31 04:45:29;;;;;;;39.03;17.37;;;9.80;99.90;;;;;;4116927;28;20043;-63
2022/03/31 04:47:31;;;;;;;42.93;16.40;;;9.80;99.90;;;;;;4117212;28;20046;-59
2022/03/31 04:49:34;;;;;;;37.37;15.90;;;9.80;99.90;;;;;;4123367;28;20038;-60
2022/03/31 04:51:35;;;;;;;49.83;18.33;;;9.90;99.90;;;;;;4123306;28;20026;-58
2022/03/31 04:53:36;;;;;;;32.10;16.20;;;10.00;99.90;;;;;;4122903;28;20122;-61
2022/03/31 04:55:38;;;;;;;35.63;17.70;;;10.00;99.90;;;;;;4123005;28;20073;-56
2022/03/31 04:57:39;;;;;;;33.37;16.70;;;10.10;99.90;;;;;;4130929;28;20636;-59
2022/03/31 04:59:41;;;;;;;38.33;17.40;;;10.10;99.90;;;;;;4123227;28;20123;-60
2022/03/31 05:01:42;;;;;;;33.10;17.33;;;10.10;99.90;;;;;;4125096;28;20447;-56
2022/03/31 05:03:44;;;;;;;56.77;21.90;;;10.10;99.90;;;;;;4124017;28;20050;-60
2022/03/31 05:05:45;;;;;;;57.77;24.20;;;10.10;99.90;;;;;;4123543;28;20079;-62
2022/03/31 05:07:46;;;;;;;53.30;23.87;;;10.10;99.90;;;;;;4123135;28;20111;-64
2022/03/31 05:09:47;;;;;;;50.30;22.27;;;10.10;99.90;;;;;;4123096;28;20767;-65
2022/03/31 05:11:49;;;;;;;53.73;22.53;;;10.10;99.90;;;;;;4123038;28;20088;-63
2022/03/31 05:13:50;;;;;;;52.77;20.97;;;10.10;99.90;;;;;;4123583;28;20081;-57
2022/03/31 05:15:51;;;;;;;57.93;21.20;;;10.00;99.90;;;;;;4122638;28;20030;-60
2022/03/31 05:17:53;;;;;;;40.90;19.07;;;10.00;99.90;;;;;;4123712;28;20117;-59
2022/03/31 05:19:54;;;;;;;38.60;17.23;;;10.00;99.90;;;;;;4122771;28;20026;-58
2022/03/31 05:21:55;;;;;;;44.17;17.33;;;10.00;99.90;;;;;;4122660;28;20112;-64
2022/03/31 05:23:56;;;;;;;48.40;18.97;;;10.00;99.90;;;;;;4123216;28;20042;-63
2022/03/31 05:25:57;;;;;;;57.57;18.97;;;10.10;99.90;;;;;;4122262;28;20538;-61
2022/03/31 05:28:00;;;;;;;47.30;19.83;;;10.20;99.90;;;;;;4122575;28;20101;-59
2022/03/31 05:30:01;;;;;;;47.53;18.77;;;10.20;99.90;;;;;;4123197;28;21447;-60
2022/03/31 05:32:03;;;;;;;42.10;18.50;;;10.20;99.90;;;;;;4122937;28;20085;-61
2022/03/31 05:34:04;;;;;;;56.20;18.97;;;10.20;99.90;;;;;;4122790;28;20030;-57
2022/03/31 05:36:06;;;;;;;51.73;19.43;;;10.30;99.90;;;;;;4122570;28;20038;-61
2022/03/31 05:38:07;;;;;;;59.07;18.23;;;10.30;99.90;;;;;;4122103;28;20030;-61
2022/03/31 05:40:10;;;;;;;52.40;19.97;;;10.20;99.90;;;;;;4122858;28;20133;-58
2022/03/31 05:42:11;;;;;;;49.97;19.00;;;10.10;99.90;;;;;;4122837;28;20062;-59
2022/03/31 05:44:12;;;;;;;52.50;18.93;;;10.00;99.90;;;;;;4122591;28;20089;-60
2022/03/31 05:46:14;;;;;;;45.63;18.20;;;10.00;99.90;;;;;;4122882;28;20077;-59
2022/03/31 05:48:15;;;;;;;51.23;20.17;;;9.90;99.90;;;;;;4123777;28;20038;-62
2022/03/31 05:50:16;;;;;;;65.73;20.20;;;9.90;99.90;;;;;;4122773;28;20951;-61
2022/03/31 05:52:17;;;;;;;48.70;19.80;;;10.00;99.90;;;;;;4122801;28;20022;-60
2022/03/31 05:54:19;;;;;;;49.07;20.47;;;10.10;99.90;;;;;;4122939;28;20085;-61
2022/03/31 05:56:20;;;;;;;34.87;17.73;;;10.00;99.90;;;;;;4123076;28;20077;-60
2022/03/31 05:58:22;;;;;;;40.57;18.57;;;10.00;99.90;;;;;;4123085;28;20050;-58
2022/03/31 06:00:23;;;;;;;47.87;19.03;;;10.10;99.90;;;;;;4120650;28;20403;-60
2022/03/31 06:02:24;;;;;;;39.40;18.60;;;10.10;99.90;;;;;;4123108;28;20404;-61
2022/03/31 06:04:25;;;;;;;46.87;19.53;;;10.20;99.90;;;;;;4122413;28;20034;-61
2022/03/31 06:06:26;;;;;;;51.57;19.47;;;10.10;99.90;;;;;;4123163;28;20030;-63
2022/03/31 06:08:27;;;;;;;49.10;17.73;;;10.10;99.90;;;;;;4122513;28;20035;-59
2022/03/31 06:10:29;;;;;;;52.17;17.70;;;10.10;99.90;;;;;;4122705;28;20566;-63
2022/03/31 06:12:30;;;;;;;39.63;17.80;;;10.10;99.90;;;;;;4122037;28;20108;-59
2022/03/31 06:14:31;;;;;;;34.23;16.10;;;10.10;99.90;;;;;;4122238;28;20136;-60
2022/03/31 06:16:32;;;;;;;35.87;17.40;;;10.20;99.90;;;;;;4123139;28;20089;-55
2022/03/31 06:18:33;;;;;;;49.93;18.77;;;10.20;99.90;;;;;;4123691;28;20061;-61
2022/03/31 06:20:35;;;;;;;38.23;18.67;;;10.20;99.90;;;;;;4123207;28;20039;-58
2022/03/31 06:22:37;;;;;;;35.93;16.50;;;10.30;99.90;;;;;;4123138;28;20039;-56
2022/03/31 06:24:38;;;;;;;40.50;16.50;;;10.40;99.70;;;;;;4122526;28;20034;-60
2022/03/31 06:26:40;;;;;;;39.57;17.80;;;10.40;99.30;;;;;;4123631;28;20054;-58
2022/03/31 06:28:41;;;;;;;49.50;17.07;;;10.40;98.70;;;;;;4122626;28;20042;-63
2022/03/31 06:30:42;;;;;;;35.50;14.53;;;10.40;98.60;;;;;;4121241;28;20426;-64
2022/03/31 06:32:44;;;;;;;41.43;15.97;;;10.30;98.20;;;;;;4122675;28;20570;-61
2022/03/31 06:34:46;;;;;;;40.17;16.40;;;10.30;98.20;;;;;;4122768;28;20144;-58
2022/03/31 06:36:47;;;;;;;43.17;16.43;;;10.30;98.20;;;;;;4123156;28;20089;-59
2022/03/31 06:38:48;;;;;;;34.10;16.20;;;10.30;98.10;;;;;;4123095;28;20046;-59
2022/03/31 06:41:10;;;;;;;42.83;19.00;;;10.40;97.90;;;;;;4122478;28;20042;-59
2022/03/31 06:43:13;;;;;;;37.17;15.40;;;10.50;97.60;;;;;;4121890;28;20557;-60
2022/03/31 06:45:16;;;;;;;37.60;14.63;;;10.50;97.10;;;;;;4120966;28;20124;-60
2022/03/31 06:47:17;;;;;;;35.80;15.67;;;10.50;96.90;;;;;;4125880;28;20470;-58
2022/03/31 06:49:18;;;;;;;38.20;16.83;;;10.60;96.90;;;;;;4125874;28;20031;-58
2022/03/31 06:51:19;;;;;;;39.83;15.80;;;10.60;96.60;;;;;;4125133;28;20042;-60
2022/03/31 06:53:21;;;;;;;40.67;16.80;;;10.60;96.40;;;;;;4126150;28;20040;-57
2022/03/31 06:55:22;;;;;;;35.67;14.87;;;10.70;96.30;;;;;;4124992;28;20038;-61
2022/03/31 06:57:23;;;;;;;39.97;16.37;;;10.70;96.00;;;;;;4126135;28;20569;-59
2022/03/31 06:59:24;;;;;;;37.67;16.10;;;10.70;95.80;;;;;;4125661;28;20034;-61
2022/03/31 07:01:26;;;;;;;42.80;17.63;;;10.80;95.70;;;;;;4125293;28;20085;-59
2022/03/31 07:03:27;;;;;;;44.63;15.47;;;10.70;95.50;;;;;;4125317;28;20398;-60
2022/03/31 07:05:29;;;;;;;36.67;15.83;;;10.80;95.40;;;;;;4125897;28;20038;-63
2022/03/31 07:07:30;;;;;;;46.37;16.70;;;10.80;95.20;;;;;;4125261;28;20478;-61
2022/03/31 07:09:31;;;;;;;37.63;15.23;;;10.80;95.10;;;;;;4125906;28;20046;-60
2022/03/31 07:11:34;;;;;;;40.77;16.93;;;10.90;94.90;;;;;;4125836;28;20043;-59
2022/03/31 07:13:35;;;;;;;36.83;15.33;;;10.90;94.80;;;;;;4125596;28;20112;-59
2022/03/31 07:15:37;;;;;;;44.93;14.97;;;11.00;94.60;;;;;;4124667;28;20034;-61
2022/03/31 07:17:38;;;;;;;41.90;14.53;;;10.90;94.30;;;;;;4124766;28;20026;-60
2022/03/31 07:19:39;;;;;;;36.33;14.37;;;11.00;94.30;;;;;;4125676;28;20030;-60
2022/03/31 07:21:41;;;;;;;37.07;15.00;;;11.10;94.30;;;;;;4124263;28;20042;-59
2022/03/31 07:23:47;;;;;;;38.10;14.30;;;11.10;94.30;;;;;;4125348;28;20034;-57
2022/03/31 07:25:48;;;;;;;39.23;15.50;;;11.10;94.30;;;;;;4124840;28;20078;-60
2022/03/31 07:27:50;;;;;;;38.87;13.90;;;11.10;94.30;;;;;;4125221;28;20817;-62
2022/03/31 07:29:51;;;;;;;41.80;15.30;;;11.20;94.20;;;;;;4124675;28;20023;-59
2022/03/31 07:31:52;;;;;;;34.23;14.97;;;11.30;94.10;;;;;;4125964;28;20122;-59
2022/03/31 07:33:54;;;;;;;40.87;15.00;;;11.30;94.00;;;;;;4124996;28;20137;-61
2022/03/31 07:35:55;;;;;;;34.43;15.67;;;11.30;93.90;;;;;;4125637;28;20393;-61
2022/03/31 07:37:57;;;;;;;33.07;15.77;;;11.40;93.70;;;;;;4124463;28;20508;-61
2022/03/31 07:39:58;;;;;;;40.27;15.67;;;11.40;93.60;;;;;;4124671;28;20038;-64
2022/03/31 07:41:59;;;;;;;45.63;14.83;;;11.40;93.30;;;;;;4124788;28;20058;-63
2022/03/31 07:44:01;;;;;;;45.23;16.50;;;11.40;93.20;;;;;;4124352;28;20101;-63
2022/03/31 07:46:02;;;;;;;42.33;15.63;;;11.50;93.20;;;;;;4124722;28;20101;-62
2022/03/31 07:48:05;;;;;;;43.93;16.30;;;11.60;93.20;;;;;;4124993;28;20034;-58
2022/03/31 07:50:09;;;;;;;37.20;15.67;;;11.70;93.10;;;;;;4125236;28;20064;-57
2022/03/31 07:52:10;;;;;;;31.10;14.57;;;11.80;92.80;;;;;;4123915;28;20030;-62
2022/03/31 07:54:11;;;;;;;35.53;15.13;;;11.90;92.60;;;;;;4125500;28;20042;-61
2022/03/31 07:56:12;;;;;;;36.60;15.70;;;11.90;92.30;;;;;;4123867;28;20030;-57
2022/03/31 07:58:13;;;;;;;28.00;13.73;;;12.00;92.10;;;;;;4124129;28;20034;-60
2022/03/31 08:00:15;;;;;;;36.83;15.10;;;12.10;92.00;;;;;;4123767;28;20038;-60
2022/03/31 08:02:17;;;;;;;34.87;16.10;;;12.20;91.90;;;;;;4125364;28;20042;-62
2022/03/31 08:04:18;;;;;;;38.27;15.30;;;12.20;91.60;;;;;;4123598;28;20093;-57
2022/03/31 08:06:20;;;;;;;48.83;16.80;;;12.30;91.40;;;;;;4124865;28;20061;-59
2022/03/31 08:08:21;;;;;;;39.73;16.03;;;12.40;91.10;;;;;;4123852;28;20034;-64
2022/03/31 08:10:23;;;;;;;39.70;16.13;;;12.40;90.70;;;;;;4123892;28;20042;-61
2022/03/31 08:12:24;;;;;;;37.27;15.90;;;12.40;90.70;;;;;;4124277;28;20034;-60
2022/03/31 08:14:25;;;;;;;49.43;16.13;;;12.50;90.90;;;;;;4124861;28;20075;-60
2022/03/31 08:16:26;;;;;;;36.33;15.60;;;12.60;90.40;;;;;;4124231;28;20613;-62
2022/03/31 08:18:32;;;;;;;31.97;15.00;;;12.70;90.10;;;;;;4125084;28;20521;-59
2022/03/31 08:20:33;;;;;;;43.00;16.13;;;12.80;89.90;;;;;;4124340;28;20085;-59
2022/03/31 08:22:35;;;;;;;35.17;15.47;;;12.80;89.70;;;;;;4124497;28;20042;-60
2022/03/31 08:24:36;;;;;;;34.33;16.80;;;12.90;89.80;;;;;;4124198;28;20785;-60
2022/03/31 08:26:37;;;;;;;40.10;15.93;;;13.00;89.90;;;;;;4123845;28;20817;-57
2022/03/31 08:28:38;;;;;;;36.00;15.03;;;13.10;89.80;;;;;;4124452;28;20069;-60
2022/03/31 08:30:40;;;;;;;29.77;14.60;;;13.20;89.30;;;;;;4123267;28;20085;-58
2022/03/31 08:32:43;;;;;;;42.23;15.57;;;13.30;89.10;;;;;;4123891;28;20146;-63
2022/03/31 08:34:44;;;;;;;28.30;14.17;;;13.30;88.60;;;;;;4122955;28;20054;-57
2022/03/31 08:36:45;;;;;;;36.43;15.70;;;13.30;88.30;;;;;;4154261;28;20099;-59
2022/03/31 08:38:47;;;;;;;35.00;15.67;;;13.30;88.20;;;;;;4123568;28;20054;-65
2022/03/31 08:40:49;;;;;;;29.77;16.47;;;13.30;87.90;;;;;;4123158;28;20081;-58
2022/03/31 08:42:51;;;;;;;35.93;16.20;;;13.20;88.00;;;;;;4123101;28;20030;-57
2022/03/31 08:44:55;;;;;;;36.30;15.93;;;13.30;88.50;;;;;;4124556;28;20517;-63
2022/03/31 08:46:56;;;;;;;28.37;15.27;;;13.30;88.50;;;;;;4124371;28;20042;-62
2022/03/31 08:48:58;;;;;;;36.03;16.30;;;13.40;88.30;;;;;;4124637;28;20097;-61
2022/03/31 08:51:00;;;;;;;31.03;16.37;;;13.30;88.00;;;;;;4124197;28;20042;-61
2022/03/31 08:53:02;;;;;;;36.93;17.10;;;13.40;87.80;;;;;;4123058;28;20042;-60
2022/03/31 08:55:04;;;;;;;33.37;16.03;;;13.40;87.90;;;;;;4124400;28;20031;-59
2022/03/31 08:57:05;;;;;;;35.00;15.80;;;13.40;87.90;;;;;;4122709;28;20026;-60
2022/03/31 08:59:07;;;;;;;39.07;16.00;;;13.40;88.00;;;;;;4123967;28;20046;-60
2022/03/31 09:01:10;;;;;;;33.77;15.83;;;13.40;87.90;;;;;;4123109;28;20026;-61
2022/03/31 09:03:11;;;;;;;39.13;15.30;;;13.40;87.90;;;;;;4123526;28;20050;-61
2022/03/31 09:05:12;;;;;;;28.33;11.20;;;13.50;88.20;;;;;;4122542;28;20042;-59
2022/03/31 09:07:13;;;;;;;23.07;9.03;;;13.60;87.60;;;;;;4123392;28;20132;-60
2022/03/31 09:09:16;;;;;;;21.40;9.80;;;13.70;85.50;;;;;;4122454;28;20481;-60
2022/03/31 09:11:25;;;;;;;23.30;9.10;;;13.80;84.60;;;;;;4122782;28;20069;-62
2022/03/31 09:13:31;;;;;;;22.90;9.30;;;13.80;83.60;;;;;;4122594;28;20140;-59
2022/03/31 09:15:34;;;;;;;28.50;9.27;;;13.90;83.50;;;;;;4122813;28;20042;-61
2022/03/31 09:17:35;;;;;;;28.63;10.43;;;13.90;83.30;;;;;;4123021;28;20077;-60
2022/03/31 09:19:36;;;;;;;23.00;9.83;;;13.90;82.60;;;;;;4123011;28;20054;-62
2022/03/31 09:21:52;;;;;;;26.80;10.33;;;13.90;82.50;;;;;;4123196;28;20034;-61
2022/03/31 09:23:54;;;;;;;27.13;10.80;;;13.90;82.30;;;;;;4122563;28;20043;-63
2022/03/31 09:26:09;;;;;;;28.97;11.80;;;13.90;82.10;;;;;;4122832;28;20046;-60
2022/03/31 09:28:13;;;;;;;22.23;11.17;;;13.90;81.60;;;;;;4122756;28;20112;-59
2022/03/31 09:30:15;;;;;;;27.13;11.67;;;13.90;81.40;;;;;;4123566;28;20034;-65
2022/03/31 09:32:16;;;;;;;33.17;14.07;;;13.90;81.60;;;;;;4122960;28;20085;-62
2022/03/31 09:34:19;;;;;;;36.60;15.57;;;13.90;81.80;;;;;;4123212;28;20089;-62
2022/03/31 09:36:22;;;;;;;28.07;14.67;;;13.90;81.70;;;;;;4122629;28;20042;-60
2022/03/31 09:38:24;;;;;;;31.33;14.93;;;13.80;81.90;;;;;;4123934;28;20144;-60
2022/03/31 09:40:35;;;;;;;36.23;14.20;;;13.80;82.40;;;;;;4122240;28;20377;-62
2022/03/31 09:42:36;;;;;;;30.07;12.23;;;13.70;82.10;;;;;;4124403;28;20569;-61
2022/03/31 09:44:38;;;;;;;23.53;10.20;;;13.70;82.40;;;;;;4122396;28;20426;-57
2022/03/31 09:46:40;;;;;;;25.87;10.13;;;13.70;82.50;;;;;;4122756;28;20518;-58
2022/03/31 09:48:43;;;;;;;19.33;10.63;;;13.80;82.20;;;;;;4123391;28;20035;-57
2022/03/31 09:50:44;;;;;;;21.87;9.93;;;13.70;81.50;;;;;;4122678;28;20406;-62
2022/03/31 09:52:47;;;;;;;20.37;10.67;;;13.80;81.70;;;;;;4122365;28;20438;-60
2022/03/31 09:54:49;;;;;;;19.77;9.57;;;13.70;81.40;;;;;;4122798;28;20435;-60
2022/03/31 09:56:51;;;;;;;30.43;10.13;;;13.70;81.30;;;;;;4122148;28;20038;-57
2022/03/31 09:58:54;;;;;;;23.33;10.17;;;13.70;81.10;;;;;;4123624;28;20097;-60
2022/03/31 10:00:55;;;;;;;25.30;11.23;;;13.80;80.90;;;;;;4122591;28;20034;-59
2022/03/31 10:02:59;;;;;;;24.80;11.40;;;13.90;80.70;;;;;;4122643;28;20550;-58
2022/03/31 10:05:01;;;;;;;24.80;11.13;;;14.10;80.60;;;;;;4121740;28;20181;-58
2022/03/31 10:07:03;;;;;;;25.50;11.10;;;14.20;80.20;;;;;;4122685;28;20553;-60
2022/03/31 10:09:07;;;;;;;24.47;12.90;;;14.30;79.70;;;;;;4123045;28;20077;-61
2022/03/31 10:11:10;;;;;;;37.40;14.33;;;14.30;79.30;;;;;;4122807;28;20122;-65
2022/03/31 10:13:29;;;;;;;29.20;14.60;;;14.40;79.00;;;;;;4122289;28;20348;-61
2022/03/31 10:15:35;;;;;;;26.63;12.33;;;14.50;78.70;;;;;;4122644;28;20446;-62
2022/03/31 10:17:36;;;;;;;25.43;10.57;;;14.50;78.70;;;;;;4122286;28;20771;-60
2022/03/31 10:19:44;;;;;;;23.80;10.60;;;14.50;78.50;;;;;;4122197;28;20502;-61
2022/03/31 10:21:56;;;;;;;30.70;10.73;;;14.60;78.40;;;;;;4124433;28;20058;-61